createdAt,value
2018-11-03T00:01:58.168Z,5.60
2018-11-03T00:04:28.854Z,5.73
2018-11-03T00:06:59.842Z,6.63
2018-11-03T00:09:29.754Z,6.80
2018-11-03T00:12:00.322Z,5.70
2018-11-03T00:14:34.270Z,7.07
2018-11-03T00:17:04.886Z,6.83
2018-11-03T00:19:35.462Z,7.23
2018-11-03T00:22:05.299Z,6.07
2018-11-03T00:24:35.002Z,5.87
2018-11-03T00:27:06.824Z,6.40
2018-11-03T00:29:37.366Z,6.30
2018-11-03T00:32:09.203Z,6.50
2018-11-03T00:34:42.000Z,6.10
2018-11-03T00:37:13.514Z,5.67
2018-11-03T00:39:44.305Z,5.70
2018-11-03T00:42:14.899Z,6.23
2018-11-03T00:44:48.303Z,5.23
2018-11-03T00:47:19.203Z,5.70
2018-11-03T00:49:49.030Z,6.10
2018-11-03T00:52:18.706Z,5.43
2018-11-03T00:54:50.508Z,5.60
2018-11-03T00:57:20.155Z,6.33
2018-11-03T00:59:54.102Z,5.77
2018-11-03T01:02:24.075Z,6.57
2018-11-03T01:04:53.591Z,6.30
2018-11-03T01:07:33.746Z,5.53
2018-11-03T01:10:03.688Z,5.90
2018-11-03T01:12:37.434Z,5.13
2018-11-03T01:15:09.031Z,6.30
2018-11-03T01:17:38.806Z,5.80
2018-11-03T01:20:11.018Z,6.40
2018-11-03T01:22:44.174Z,6.33
2018-11-03T01:25:14.977Z,6.60
2018-11-03T01:27:44.874Z,6.10
2018-11-03T01:30:16.595Z,5.70
2018-11-03T01:32:46.402Z,6.37
2018-11-03T01:35:16.052Z,5.53
2018-11-03T01:37:45.510Z,6.10
2018-11-03T01:40:15.055Z,5.33
2018-11-03T01:42:44.635Z,6.43
2018-11-03T01:45:15.160Z,5.97
2018-11-03T01:47:45.953Z,5.90
2018-11-03T01:50:17.590Z,6.70
2018-11-03T01:52:47.162Z,6.33
2018-11-03T01:55:16.667Z,6.33
2018-11-03T01:57:46.170Z,6.47
2018-11-03T02:00:15.906Z,6.83
2018-11-03T02:02:45.487Z,8.20
2018-11-03T02:05:15.019Z,4.80
2018-11-03T02:07:45.719Z,6.07
2018-11-03T02:10:15.355Z,6.90
2018-11-03T02:12:44.959Z,5.60
2018-11-03T02:15:15.479Z,6.67
2018-11-03T02:17:45.003Z,6.07
2018-11-03T02:20:14.643Z,5.57
2018-11-03T02:22:44.167Z,6.00
2018-11-03T02:25:14.240Z,6.13
2018-11-03T02:27:43.892Z,5.90
2018-11-03T02:30:13.437Z,5.97
2018-11-03T02:32:42.923Z,7.17
2018-11-03T02:35:13.799Z,6.03
2018-11-03T02:37:43.635Z,5.77
2018-11-03T02:40:13.575Z,6.23
2018-11-03T02:42:44.486Z,6.40
2018-11-03T02:45:14.199Z,5.77
2018-11-03T02:47:43.751Z,6.43
2018-11-03T02:50:14.349Z,6.23
2018-11-03T02:52:44.027Z,5.87
2018-11-03T02:55:13.602Z,6.40
2018-11-03T02:57:44.143Z,5.50
2018-11-03T03:00:13.744Z,6.17
2018-11-03T03:02:44.468Z,5.87
2018-11-03T03:05:16.461Z,6.70
2018-11-03T03:07:45.983Z,6.17
2018-11-03T03:10:15.518Z,6.00
2018-11-03T03:12:45.003Z,7.23
2018-11-03T03:15:14.816Z,6.50
2018-11-03T03:17:44.322Z,5.67
2018-11-03T03:20:13.936Z,5.93
2018-11-03T03:22:43.681Z,5.93
2018-11-03T03:25:13.498Z,6.23
2018-11-03T03:27:43.071Z,5.90
2018-11-03T03:30:13.670Z,5.63
2018-11-03T03:32:43.198Z,5.70
2018-11-03T03:35:14.779Z,5.83
2018-11-03T03:37:46.551Z,6.07
2018-11-03T03:40:17.150Z,5.90
2018-11-03T03:42:46.666Z,6.43
2018-11-03T03:45:16.191Z,5.97
2018-11-03T03:47:45.982Z,5.90
2018-11-03T03:50:16.590Z,6.27
2018-11-03T03:52:48.382Z,6.60
2018-11-03T03:55:19.198Z,5.63
2018-11-03T03:57:48.778Z,6.30
2018-11-03T04:00:21.807Z,6.70
2018-11-03T04:02:52.736Z,5.87
2018-11-03T04:05:22.406Z,5.20
2018-11-03T04:07:58.131Z,6.17
2018-11-03T04:10:27.891Z,5.83
2018-11-03T04:12:58.660Z,5.87
2018-11-03T04:15:34.923Z,6.00
2018-11-03T04:18:06.835Z,6.53
2018-11-03T04:20:37.532Z,6.60
2018-11-03T04:23:07.092Z,5.70
2018-11-03T04:25:36.603Z,6.23
2018-11-03T04:28:06.135Z,5.83
2018-11-03T04:30:35.827Z,5.73
2018-11-03T04:33:06.543Z,5.83
2018-11-03T04:35:37.158Z,5.97
2018-11-03T04:38:07.935Z,5.60
2018-11-03T04:40:37.633Z,5.70
2018-11-03T04:43:08.119Z,6.07
2018-11-03T04:45:38.812Z,5.63
2018-11-03T04:48:08.403Z,6.03
2018-11-03T04:50:39.015Z,5.87
2018-11-03T04:53:08.823Z,6.00
2018-11-03T04:55:38.437Z,5.60
2018-11-03T04:58:08.159Z,5.67
2018-11-03T05:00:45.159Z,6.20
2018-11-03T05:03:15.619Z,5.90
2018-11-03T05:05:45.375Z,6.60
2018-11-03T05:08:15.259Z,6.17
2018-11-03T05:10:44.875Z,5.83
2018-11-03T05:13:14.587Z,6.50
2018-11-03T05:15:44.395Z,6.30
2018-11-03T05:18:21.210Z,6.00
2018-11-03T05:20:54.550Z,6.40
2018-11-03T05:23:24.406Z,5.97
2018-11-03T05:25:55.215Z,6.77
2018-11-03T05:28:24.828Z,6.33
2018-11-03T05:30:54.612Z,6.20
2018-11-03T05:33:30.223Z,6.10
2018-11-03T05:36:01.123Z,5.83
2018-11-03T05:38:30.690Z,6.33
2018-11-03T05:41:02.444Z,5.40
2018-11-03T05:43:35.771Z,6.80
2018-11-03T05:46:06.531Z,6.30
2018-11-03T05:48:38.135Z,5.90
2018-11-03T05:51:11.467Z,6.50
2018-11-03T05:53:41.397Z,7.67
2018-11-03T05:56:13.202Z,6.80
2018-11-03T05:58:46.330Z,7.03
2018-11-03T06:01:17.111Z,6.40
2018-11-03T06:03:48.020Z,6.83
2018-11-03T06:06:17.664Z,6.67
2018-11-03T06:09:03.939Z,6.13
2018-11-03T06:11:35.771Z,6.47
2018-11-03T06:14:10.591Z,5.83
2018-11-03T06:16:41.472Z,7.10
2018-11-03T06:19:12.359Z,5.93
2018-11-03T06:21:47.700Z,6.20
2018-11-03T06:24:17.271Z,6.20
2018-11-03T06:26:49.055Z,5.77
2018-11-03T06:29:18.911Z,5.93
2018-11-03T06:31:49.483Z,5.50
2018-11-03T06:34:20.249Z,6.07
2018-11-03T06:36:52.071Z,6.00
2018-11-03T06:39:21.943Z,6.80
2018-11-03T06:41:53.555Z,6.60
2018-11-03T06:44:23.403Z,5.87
2018-11-03T06:46:59.179Z,5.03
2018-11-03T06:49:36.287Z,5.80
2018-11-03T06:52:06.406Z,6.00
2018-11-03T06:54:36.255Z,5.73
2018-11-03T06:57:06.175Z,6.30
2018-11-03T06:59:35.983Z,5.77
2018-11-03T07:02:05.971Z,5.10
2018-11-03T07:04:36.891Z,5.97
2018-11-03T07:07:06.755Z,5.80
2018-11-03T07:09:37.371Z,6.03
2018-11-03T07:12:09.241Z,5.50
2018-11-03T07:14:39.098Z,6.23
2018-11-03T07:17:09.043Z,6.23
2018-11-03T07:19:39.662Z,6.17
2018-11-03T07:22:10.195Z,6.53
2018-11-03T07:24:39.889Z,5.60
2018-11-03T07:27:10.530Z,6.30
2018-11-03T07:29:41.306Z,5.83
2018-11-03T07:32:11.958Z,6.00
2018-11-03T07:34:41.698Z,6.03
2018-11-03T07:37:11.531Z,6.13
2018-11-03T07:39:41.385Z,6.00
2018-11-03T07:42:12.247Z,5.60
2018-11-03T07:44:43.079Z,5.40
2018-11-03T07:47:12.975Z,6.10
2018-11-03T07:49:43.034Z,5.33
2018-11-03T07:52:15.059Z,5.77
2018-11-03T07:54:45.818Z,5.57
2018-11-03T07:57:15.532Z,6.13
2018-11-03T07:59:45.179Z,5.57
2018-11-03T08:02:16.902Z,5.70
2018-11-03T08:04:46.743Z,6.63
2018-11-03T08:07:16.663Z,5.97
2018-11-03T08:09:46.431Z,5.70
2018-11-03T08:12:17.023Z,5.03
2018-11-03T08:14:46.654Z,6.50
2018-11-03T08:17:16.167Z,6.40
2018-11-03T08:19:45.878Z,5.73
2018-11-03T08:22:15.531Z,5.73
2018-11-03T08:24:47.271Z,6.60
2018-11-03T08:27:17.878Z,6.23
2018-11-03T08:29:54.679Z,5.80
2018-11-03T08:32:25.531Z,6.33
2018-11-03T08:34:55.197Z,5.97
2018-11-03T08:37:26.720Z,7.40
2018-11-03T08:39:56.251Z,7.83
2018-11-03T08:42:27.802Z,6.27
2018-11-03T08:44:57.291Z,6.27
2018-11-03T08:47:26.811Z,7.67
2018-11-03T08:49:58.599Z,7.30
2018-11-03T08:52:28.499Z,7.43
2018-11-03T08:55:03.147Z,7.17
2018-11-03T08:59:56.773Z,7.47
2018-11-03T09:02:26.423Z,7.70
2018-11-03T09:04:57.015Z,8.10
2018-11-03T09:07:33.147Z,8.13
2018-11-03T09:10:02.976Z,7.27
2018-11-03T09:12:32.811Z,7.10
2018-11-03T09:15:02.623Z,7.27
2018-11-03T09:17:38.064Z,6.90
2018-11-03T09:20:12.726Z,7.33
2018-11-03T09:22:46.095Z,6.83
2018-11-03T09:25:16.310Z,8.40
2018-11-03T09:27:50.306Z,6.87
2018-11-03T09:30:20.315Z,7.53
2018-11-03T09:32:51.219Z,6.70
2018-11-03T09:35:21.786Z,6.17
2018-11-03T09:37:54.939Z,6.73
2018-11-03T09:40:24.583Z,7.20
2018-11-03T09:42:55.247Z,7.13
2018-11-03T09:45:27.071Z,7.30
2018-11-03T09:47:56.914Z,6.60
2018-11-03T09:50:26.919Z,7.30
2018-11-03T09:52:56.775Z,6.90
2018-11-03T09:55:26.605Z,6.83
2018-11-03T09:57:58.427Z,8.43
2018-11-03T10:00:28.335Z,7.53
2018-11-03T10:02:59.143Z,7.13
2018-11-03T10:05:28.975Z,7.43
2018-11-03T10:07:59.891Z,6.73
2018-11-03T10:10:30.695Z,8.07
2018-11-03T10:13:00.266Z,7.30
2018-11-03T10:15:30.107Z,7.57
2018-11-03T10:18:00.693Z,7.77
2018-11-03T10:20:30.247Z,7.13
2018-11-03T10:23:00.096Z,7.50
2018-11-03T10:25:30.656Z,8.10
2018-11-03T10:28:00.448Z,7.53
2018-11-03T10:30:30.463Z,8.60
2018-11-03T10:33:02.307Z,7.97
2018-11-03T10:35:32.244Z,8.03
2018-11-03T10:38:02.894Z,7.70
2018-11-03T10:40:33.680Z,8.07
2018-11-03T10:43:03.532Z,8.50
2018-11-03T10:45:36.632Z,8.47
2018-11-03T10:48:06.171Z,7.70
2018-11-03T10:50:36.728Z,8.03
2018-11-03T10:53:07.323Z,8.30
2018-11-03T10:55:37.108Z,7.17
2018-11-03T10:58:06.691Z,9.03
2018-11-03T11:01:45.171Z,7.80
2018-11-03T11:04:20.143Z,8.67
2018-11-03T11:07:00.655Z,8.37
2018-11-03T11:09:35.302Z,7.50
2018-11-03T11:12:16.483Z,8.10
2018-11-03T11:14:46.206Z,7.70
2018-11-03T11:17:17.211Z,7.93
2018-11-03T11:19:47.794Z,7.47
2018-11-03T11:22:18.331Z,8.33
2018-11-03T11:24:51.268Z,8.67
2018-11-03T11:27:22.855Z,6.80
2018-11-03T11:29:53.683Z,7.73
2018-11-03T11:32:27.059Z,8.03
2018-11-03T11:34:56.479Z,7.10
2018-11-03T11:37:28.660Z,7.57
2018-11-03T11:39:58.143Z,7.73
2018-11-03T11:42:33.135Z,7.90
2018-11-03T11:45:02.991Z,8.90
2018-11-03T11:47:33.790Z,8.10
2018-11-03T11:50:03.672Z,8.80
2018-11-03T11:52:33.224Z,8.67
2018-11-03T11:55:06.963Z,8.17
2018-11-03T11:57:37.710Z,7.93
2018-11-03T12:00:13.051Z,9.03
2018-11-03T12:02:42.963Z,8.80
2018-11-03T12:05:13.792Z,8.20
2018-11-03T12:07:47.396Z,7.57
2018-11-03T12:10:19.220Z,7.27
2018-11-03T12:12:48.935Z,9.23
2018-11-03T12:15:18.539Z,8.10
2018-11-03T12:17:49.227Z,7.33
2018-11-03T12:20:20.015Z,7.80
2018-11-03T12:22:53.184Z,9.07
2018-11-03T12:25:26.612Z,7.20
2018-11-03T12:27:56.204Z,8.17
2018-11-03T12:30:29.460Z,7.60
2018-11-03T12:33:01.286Z,7.53
2018-11-03T12:35:32.915Z,8.43
2018-11-03T12:38:02.639Z,7.97
2018-11-03T12:40:32.265Z,9.30
2018-11-03T12:43:05.688Z,8.73
2018-11-03T12:45:35.491Z,7.80
2018-11-03T12:48:05.487Z,7.87
2018-11-03T12:50:36.384Z,8.63
2018-11-03T12:53:06.940Z,7.33
2018-11-03T12:55:36.707Z,7.93
2018-11-03T12:58:06.456Z,7.83
2018-11-03T13:00:36.071Z,7.90
2018-11-03T13:03:06.438Z,7.40
2018-11-03T13:05:37.259Z,8.13
2018-11-03T13:08:07.865Z,9.07
2018-11-03T13:10:37.340Z,7.63
2018-11-03T13:13:08.116Z,7.90
2018-11-03T13:15:38.042Z,8.20
2018-11-03T13:18:08.565Z,7.20
2018-11-03T13:20:38.146Z,9.00
2018-11-03T13:23:07.963Z,8.93
2018-11-03T13:25:37.855Z,7.70
2018-11-03T13:28:07.807Z,8.60
2018-11-03T13:30:37.711Z,8.77
2018-11-03T13:33:07.635Z,9.20
2018-11-03T13:35:37.585Z,10.67
2018-11-03T13:38:08.475Z,10.00
2018-11-03T13:40:38.212Z,9.10
2018-11-03T13:43:08.023Z,9.70
2018-11-03T13:45:37.603Z,7.97
2018-11-03T13:48:07.107Z,9.13
2018-11-03T13:50:38.856Z,9.40
2018-11-03T13:53:08.759Z,9.07
2018-11-03T13:55:39.352Z,8.53
2018-11-03T13:58:10.175Z,9.30
2018-11-03T14:00:41.756Z,9.50
2018-11-03T14:03:12.555Z,9.10
2018-11-03T14:05:42.459Z,9.60
2018-11-03T14:08:12.356Z,9.17
2018-11-03T14:10:43.212Z,9.07
2018-11-03T14:13:23.200Z,8.80
2018-11-03T14:15:55.100Z,9.73
2018-11-03T14:18:25.032Z,8.97
2018-11-03T14:20:55.880Z,9.50
2018-11-03T14:23:26.521Z,9.90
2018-11-03T14:25:59.645Z,9.10
2018-11-03T14:28:30.635Z,9.27
2018-11-03T14:31:01.232Z,10.43
2018-11-03T14:33:31.052Z,8.70
2018-11-03T14:36:00.974Z,9.10
2018-11-03T14:38:35.345Z,10.00
2018-11-03T14:41:10.452Z,9.17
2018-11-03T14:43:39.968Z,9.97
2018-11-03T14:46:09.716Z,10.00
2018-11-03T14:48:39.316Z,9.57
2018-11-03T14:51:12.260Z,9.13
2018-11-03T14:53:41.820Z,9.57
2018-11-03T14:56:11.660Z,9.37
2018-11-03T14:58:41.332Z,9.90
2018-11-03T15:01:11.388Z,9.60
2018-11-03T15:03:45.444Z,9.33
2018-11-03T15:06:14.923Z,8.10
2018-11-03T15:08:44.612Z,9.90
2018-11-03T15:11:15.487Z,10.70
2018-11-03T15:13:45.171Z,10.37
2018-11-03T15:16:14.611Z,9.40
2018-11-03T15:18:44.299Z,10.37
2018-11-03T15:21:14.135Z,11.10
2018-11-03T15:23:43.947Z,9.70
2018-11-03T15:26:14.771Z,10.70
2018-11-03T15:28:44.611Z,10.67
2018-11-03T15:31:14.539Z,9.77
2018-11-03T15:33:44.331Z,9.97
2018-11-03T15:36:15.012Z,10.10
2018-11-03T15:38:45.779Z,9.73
2018-11-03T15:41:16.669Z,11.83
2018-11-03T15:43:52.167Z,9.80
2018-11-03T15:46:21.740Z,10.40
2018-11-03T15:48:51.468Z,10.10
2018-11-03T15:51:24.409Z,9.90
2018-11-03T15:53:55.200Z,9.53
2018-11-03T15:56:27.016Z,11.37
2018-11-03T15:58:57.880Z,9.53
2018-11-03T16:01:28.540Z,10.70
2018-11-03T16:04:05.941Z,10.80
2018-11-03T16:06:35.871Z,10.53
2018-11-03T16:09:10.179Z,10.77
2018-11-03T16:11:39.919Z,11.33
2018-11-03T16:14:10.036Z,11.77
2018-11-03T16:16:39.816Z,11.53
2018-11-03T16:19:10.507Z,10.27
2018-11-03T16:21:40.173Z,9.70
2018-11-03T16:24:11.664Z,10.57
2018-11-03T16:26:41.172Z,11.30
2018-11-03T16:29:18.524Z,10.40
2018-11-03T16:31:51.335Z,11.10
2018-11-03T16:34:21.804Z,11.03
2018-11-03T16:36:51.359Z,12.47
2018-11-03T16:39:20.856Z,11.93
2018-11-03T16:41:50.391Z,12.67
2018-11-03T16:44:19.912Z,10.87
2018-11-03T16:46:52.436Z,9.60
2018-11-03T16:49:22.511Z,11.57
2018-11-03T16:51:52.405Z,10.80
2018-11-03T16:54:25.735Z,12.07
2018-11-03T16:56:56.569Z,12.20
2018-11-03T16:59:26.728Z,11.63
2018-11-03T17:01:56.396Z,13.47
2018-11-03T17:04:27.176Z,12.13
2018-11-03T17:06:56.836Z,11.97
2018-11-03T17:09:26.516Z,14.50
2018-11-03T17:12:04.120Z,12.70
2018-11-03T17:14:33.946Z,11.93
2018-11-03T17:17:03.815Z,12.60
2018-11-03T17:19:33.605Z,13.60
2018-11-03T17:22:03.403Z,12.90
2018-11-03T17:24:32.948Z,12.37
2018-11-03T17:27:03.435Z,12.40
2018-11-03T17:29:33.219Z,11.27
2018-11-03T17:32:02.785Z,12.07
2018-11-03T17:34:33.326Z,12.90
2018-11-03T17:37:02.839Z,13.13
2018-11-03T17:39:34.587Z,12.17
2018-11-03T17:42:07.675Z,12.47
2018-11-03T17:44:37.295Z,12.10
2018-11-03T17:47:07.471Z,12.80
2018-11-03T17:49:38.175Z,14.47
2018-11-03T17:52:11.856Z,14.40
2018-11-03T17:54:45.077Z,12.33
2018-11-03T17:57:14.877Z,12.67
2018-11-03T17:59:44.447Z,12.70
2018-11-03T18:02:14.967Z,14.87
2018-11-03T18:04:44.508Z,13.53
2018-11-03T18:07:15.212Z,12.70
2018-11-03T18:09:44.867Z,15.07
2018-11-03T18:12:14.399Z,13.60
2018-11-03T18:14:44.983Z,14.30
2018-11-03T18:17:14.556Z,16.20
2018-11-03T18:19:44.384Z,16.87
2018-11-03T18:22:14.245Z,14.43
2018-11-03T18:24:45.004Z,14.67
2018-11-03T18:27:14.832Z,16.03
2018-11-03T18:29:44.456Z,15.50
2018-11-03T18:32:14.956Z,16.60
2018-11-03T18:34:45.839Z,17.30
2018-11-03T18:37:15.668Z,16.77
2018-11-03T18:39:45.232Z,13.63
2018-11-03T18:42:14.736Z,14.80
2018-11-03T18:44:44.560Z,15.73
2018-11-03T18:47:14.368Z,17.43
2018-11-03T18:49:44.408Z,15.80
2018-11-03T18:52:16.292Z,16.10
2018-11-03T18:54:46.872Z,15.87
2018-11-03T18:57:17.436Z,15.80
2018-11-03T18:59:47.244Z,16.90
2018-11-03T19:02:17.896Z,15.53
2018-11-03T19:04:49.299Z,16.53
2018-11-03T19:07:19.697Z,17.27
2018-11-03T19:09:49.228Z,17.50
2018-11-03T19:12:20.748Z,17.90
2018-11-03T19:14:50.320Z,16.87
2018-11-03T19:17:21.207Z,17.70
2018-11-03T19:19:52.995Z,17.73
2018-11-03T19:22:23.651Z,16.90
2018-11-03T19:24:53.444Z,16.83
2018-11-03T19:27:23.139Z,18.00
2018-11-03T19:29:54.766Z,18.10
2018-11-03T19:32:24.352Z,16.83
2018-11-03T19:34:53.920Z,18.00
2018-11-03T19:37:23.551Z,17.57
2018-11-03T19:39:53.324Z,16.97
2018-11-03T19:42:23.292Z,17.23
2018-11-03T19:44:57.691Z,17.73
2018-11-03T19:47:27.632Z,19.03
2018-11-03T19:49:57.502Z,17.53
2018-11-03T19:52:27.420Z,17.83
2018-11-03T19:55:02.991Z,17.10
2018-11-03T19:57:34.040Z,19.07
2018-11-03T20:00:04.128Z,18.37
2018-11-03T20:02:34.836Z,18.60
2018-11-03T20:05:05.099Z,17.23
2018-11-03T20:07:35.016Z,19.23
2018-11-03T20:10:06.741Z,18.90
2018-11-03T20:12:36.524Z,16.60
2018-11-03T20:15:08.156Z,19.70
2018-11-03T20:17:38.996Z,19.70
2018-11-03T20:20:10.057Z,19.90
2018-11-03T20:22:39.932Z,19.53
2018-11-03T20:25:10.832Z,20.47
2018-11-03T20:27:41.360Z,19.20
2018-11-03T20:30:12.897Z,19.37
2018-11-03T20:32:44.055Z,18.37
2018-11-03T20:35:13.789Z,19.67
2018-11-03T20:37:45.323Z,17.73
2018-11-03T20:40:15.228Z,19.00
2018-11-03T20:42:45.796Z,19.07
2018-11-03T20:45:15.617Z,19.20
2018-11-03T20:47:46.335Z,19.63
2018-11-03T20:50:16.144Z,20.87
2018-11-03T20:52:45.842Z,19.20
2018-11-03T20:55:20.040Z,19.90
2018-11-03T20:57:49.659Z,24.13
2018-11-03T21:00:19.488Z,32.57
2018-11-03T21:02:49.565Z,28.10
2018-11-03T21:05:20.184Z,21.00
2018-11-03T21:07:50.926Z,22.00
2018-11-03T21:10:20.664Z,20.00
2018-11-03T21:12:50.728Z,18.10
2018-11-03T21:15:20.624Z,20.70
2018-11-03T21:17:50.507Z,20.20
2018-11-03T21:20:22.356Z,19.83
2018-11-03T21:22:54.031Z,19.27
2018-11-03T21:25:23.719Z,19.57
2018-11-03T21:27:54.660Z,21.30
2018-11-03T21:30:25.556Z,21.43
2018-11-03T21:32:55.601Z,19.03
2018-11-03T21:35:25.048Z,21.20
2018-11-03T21:37:55.784Z,20.60
2018-11-03T21:40:26.700Z,20.97
2018-11-03T21:42:56.379Z,21.47
2018-11-03T21:45:26.012Z,20.90
2018-11-03T21:47:56.507Z,20.50
2018-11-03T21:50:26.147Z,20.70
2018-11-03T21:52:56.631Z,18.97
2018-11-03T21:55:29.752Z,20.50
2018-11-03T21:57:59.360Z,20.70
2018-11-03T22:00:29.205Z,21.80
2018-11-03T22:03:01.055Z,19.40
2018-11-03T22:05:34.340Z,18.23
2018-11-03T22:08:03.964Z,20.73
2018-11-03T22:10:35.844Z,20.50
2018-11-03T22:13:06.222Z,19.60
2018-11-03T22:15:35.779Z,22.10
2018-11-03T22:18:06.608Z,20.93
2018-11-03T22:20:39.236Z,21.13
2018-11-03T22:23:12.428Z,20.33
2018-11-03T22:25:46.788Z,20.73
2018-11-03T22:28:17.108Z,20.73
2018-11-03T22:30:47.692Z,20.60
2018-11-03T22:33:18.984Z,19.40
2018-11-03T22:35:50.824Z,21.60
2018-11-03T22:38:21.888Z,22.20
2018-11-03T22:40:51.787Z,20.40
2018-11-03T22:43:21.755Z,22.03
2018-11-03T22:45:52.436Z,18.93
2018-11-03T22:48:22.236Z,22.33
2018-11-03T22:50:55.990Z,21.43
2018-11-03T22:53:26.864Z,21.20
2018-11-03T22:55:58.756Z,19.50
2018-11-03T22:58:35.868Z,19.73
2018-11-03T23:01:05.808Z,20.60
2018-11-03T23:03:41.919Z,22.70
2018-11-03T23:06:13.575Z,21.80
2018-11-03T23:08:48.412Z,20.73
2018-11-03T23:11:18.292Z,21.03
2018-11-03T23:13:49.993Z,20.07
2018-11-03T23:16:19.736Z,20.10
2018-11-03T23:18:49.388Z,18.87
2018-11-03T23:21:19.180Z,19.67
2018-11-03T23:23:52.296Z,18.60
2018-11-03T23:26:24.460Z,19.80
2018-11-03T23:28:54.108Z,18.97
2018-11-03T23:31:23.956Z,20.10
2018-11-03T23:33:53.667Z,18.60
2018-11-03T23:36:24.484Z,21.40
2018-11-03T23:38:54.173Z,18.33
2018-11-03T23:41:24.292Z,18.80
2018-11-03T23:43:57.803Z,18.70
2018-11-03T23:46:28.492Z,16.53
2018-11-03T23:48:58.021Z,19.20
2018-11-03T23:51:29.600Z,20.07
2018-11-03T23:54:00.404Z,18.50
2018-11-03T23:56:30.588Z,18.10
2018-11-03T23:59:00.628Z,17.87
